Good Hope, Mississippi
Current Conditions -  °F | °C
As of 8:53 PM on Tuesday 25 Nov 2014 (Local Time) from KHBG Reporting Station
Clear Clear  
Wind Chill: 45°   Ceiling: Unl
Heat Index: 48°   Visibility: 10mi
Dew Point: 31°   Wind: 6mph
Humidity: 52%   Direction: 330°NNW
Pressure: 30.21"   Gusts: NA
Location:  31.3326°N, 88.8854°W
Report Text: KHBG 260253Z AUTO 33005KT 10SM CLR 09/M01 A3021 RMK AO2 SLP229 T00891006 51017
Loading
Personal Weather Stations






























Interactive Weather Map New forecast layout! Learn more

10-Day Weather Forecast

Advertisements
Track Severe Weather on mobile